sensor_id;sensor_type;location;lat;lon;timestamp;P1;durP1;ratioP1;P2;durP2;ratioP2
75009;SDS011;63564;46.840;18.336;2022-10-16T00:00:36;15.57;;;8.93;;
75009;SDS011;63564;46.840;18.336;2022-10-16T00:03:39;16.83;;;8.95;;
75009;SDS011;63564;46.840;18.336;2022-10-16T00:06:40;15.80;;;8.60;;
75009;SDS011;63564;46.840;18.336;2022-10-16T00:09:41;15.27;;;8.07;;
75009;SDS011;63564;46.840;18.336;2022-10-16T00:12:41;13.40;;;8.40;;
75009;SDS011;63564;46.840;18.336;2022-10-16T00:15:41;15.13;;;8.70;;
75009;SDS011;63564;46.840;18.336;2022-10-16T00:18:43;13.63;;;8.25;;
75009;SDS011;63564;46.840;18.336;2022-10-16T00:21:44;14.43;;;8.03;;
75009;SDS011;63564;46.840;18.336;2022-10-16T00:24:44;14.17;;;8.53;;
75009;SDS011;63564;46.840;18.336;2022-10-16T00:27:44;13.30;;;8.10;;
75009;SDS011;63564;46.840;18.336;2022-10-16T00:30:45;15.03;;;8.53;;
75009;SDS011;63564;46.840;18.336;2022-10-16T00:33:45;14.83;;;8.50;;
75009;SDS011;63564;46.840;18.336;2022-10-16T00:36:46;15.53;;;8.60;;
75009;SDS011;63564;46.840;18.336;2022-10-16T00:39:46;15.77;;;8.55;;
75009;SDS011;63564;46.840;18.336;2022-10-16T00:42:46;14.00;;;7.87;;
75009;SDS011;63564;46.840;18.336;2022-10-16T00:45:47;14.43;;;8.47;;
75009;SDS011;63564;46.840;18.336;2022-10-16T00:48:52;15.37;;;8.70;;
75009;SDS011;63564;46.840;18.336;2022-10-16T00:51:54;15.18;;;9.52;;
75009;SDS011;63564;46.840;18.336;2022-10-16T00:54:54;14.33;;;9.00;;
75009;SDS011;63564;46.840;18.336;2022-10-16T00:57:56;19.02;;;9.77;;
75009;SDS011;63564;46.840;18.336;2022-10-16T01:00:58;19.70;;;10.27;;
75009;SDS011;63564;46.840;18.336;2022-10-16T01:03:58;16.43;;;9.17;;
75009;SDS011;63564;46.840;18.336;2022-10-16T01:13:21;15.27;;;8.82;;
75009;SDS011;63564;46.840;18.336;2022-10-16T01:16:33;17.70;;;9.67;;
75009;SDS011;63564;46.840;18.336;2022-10-16T01:29:26;15.43;;;8.95;;
75009;SDS011;63564;46.840;18.336;2022-10-16T01:36:02;20.35;;;9.10;;
75009;SDS011;63564;46.840;18.336;2022-10-16T01:39:10;17.23;;;9.00;;
75009;SDS011;63564;46.840;18.336;2022-10-16T01:42:17;17.15;;;8.45;;
75009;SDS011;63564;46.840;18.336;2022-10-16T01:45:21;13.13;;;8.40;;
75009;SDS011;63564;46.840;18.336;2022-10-16T01:48:22;18.17;;;8.67;;
75009;SDS011;63564;46.840;18.336;2022-10-16T01:51:23;15.40;;;8.27;;
75009;SDS011;63564;46.840;18.336;2022-10-16T01:54:28;15.10;;;8.30;;
75009;SDS011;63564;46.840;18.336;2022-10-16T01:57:31;15.57;;;8.30;;
75009;SDS011;63564;46.840;18.336;2022-10-16T02:00:36;17.17;;;9.10;;
75009;SDS011;63564;46.840;18.336;2022-10-16T02:03:40;17.17;;;8.80;;
75009;SDS011;63564;46.840;18.336;2022-10-16T02:06:42;16.02;;;9.05;;
75009;SDS011;63564;46.840;18.336;2022-10-16T02:09:43;13.33;;;8.97;;
75009;SDS011;63564;46.840;18.336;2022-10-16T02:12:49;15.05;;;9.02;;
75009;SDS011;63564;46.840;18.336;2022-10-16T02:15:56;15.52;;;8.73;;
75009;SDS011;63564;46.840;18.336;2022-10-16T02:18:56;17.40;;;9.27;;
75009;SDS011;63564;46.840;18.336;2022-10-16T02:21:58;18.73;;;9.67;;
75009;SDS011;63564;46.840;18.336;2022-10-16T02:28:45;15.02;;;9.10;;
75009;SDS011;63564;46.840;18.336;2022-10-16T02:31:56;15.00;;;8.87;;
75009;SDS011;63564;46.840;18.336;2022-10-16T02:38:21;18.48;;;9.25;;
75009;SDS011;63564;46.840;18.336;2022-10-16T02:41:22;16.55;;;8.93;;
75009;SDS011;63564;46.840;18.336;2022-10-16T02:44:24;15.38;;;9.18;;
75009;SDS011;63564;46.840;18.336;2022-10-16T02:47:24;15.53;;;9.33;;
75009;SDS011;63564;46.840;18.336;2022-10-16T02:50:24;17.07;;;10.07;;
75009;SDS011;63564;46.840;18.336;2022-10-16T02:53:25;19.30;;;10.03;;
75009;SDS011;63564;46.840;18.336;2022-10-16T02:56:25;15.83;;;9.53;;
75009;SDS011;63564;46.840;18.336;2022-10-16T02:59:25;16.97;;;9.47;;
75009;SDS011;63564;46.840;18.336;2022-10-16T03:02:26;16.53;;;9.73;;
75009;SDS011;63564;46.840;18.336;2022-10-16T03:05:26;17.48;;;9.20;;
75009;SDS011;63564;46.840;18.336;2022-10-16T03:08:26;18.17;;;9.60;;
75009;SDS011;63564;46.840;18.336;2022-10-16T03:11:27;17.77;;;9.23;;
75009;SDS011;63564;46.840;18.336;2022-10-16T03:14:28;14.80;;;9.23;;
75009;SDS011;63564;46.840;18.336;2022-10-16T03:17:28;15.60;;;9.03;;
75009;SDS011;63564;46.840;18.336;2022-10-16T03:20:28;14.98;;;8.63;;
75009;SDS011;63564;46.840;18.336;2022-10-16T03:23:29;15.27;;;8.00;;
75009;SDS011;63564;46.840;18.336;2022-10-16T03:26:29;15.20;;;8.50;;
75009;SDS011;63564;46.840;18.336;2022-10-16T03:29:29;16.30;;;8.80;;
75009;SDS011;63564;46.840;18.336;2022-10-16T03:32:30;18.13;;;8.87;;
75009;SDS011;63564;46.840;18.336;2022-10-16T03:35:30;16.67;;;8.70;;
75009;SDS011;63564;46.840;18.336;2022-10-16T03:38:31;15.40;;;8.07;;
75009;SDS011;63564;46.840;18.336;2022-10-16T03:41:32;15.60;;;8.87;;
75009;SDS011;63564;46.840;18.336;2022-10-16T03:44:32;15.40;;;8.43;;
75009;SDS011;63564;46.840;18.336;2022-10-16T03:47:33;14.68;;;8.25;;
75009;SDS011;63564;46.840;18.336;2022-10-16T03:50:33;14.37;;;8.70;;
75009;SDS011;63564;46.840;18.336;2022-10-16T03:53:33;14.20;;;8.33;;
75009;SDS011;63564;46.840;18.336;2022-10-16T03:56:34;17.23;;;8.73;;
75009;SDS011;63564;46.840;18.336;2022-10-16T03:59:34;14.30;;;7.97;;
75009;SDS011;63564;46.840;18.336;2022-10-16T04:02:34;15.93;;;8.57;;
75009;SDS011;63564;46.840;18.336;2022-10-16T04:05:35;16.40;;;8.53;;
75009;SDS011;63564;46.840;18.336;2022-10-16T04:08:35;15.00;;;8.33;;
75009;SDS011;63564;46.840;18.336;2022-10-16T04:11:36;15.15;;;7.90;;
75009;SDS011;63564;46.840;18.336;2022-10-16T04:14:37;16.00;;;8.73;;
75009;SDS011;63564;46.840;18.336;2022-10-16T04:17:37;15.70;;;9.30;;
75009;SDS011;63564;46.840;18.336;2022-10-16T04:20:37;17.43;;;9.50;;
75009;SDS011;63564;46.840;18.336;2022-10-16T04:23:38;20.13;;;9.53;;
75009;SDS011;63564;46.840;18.336;2022-10-16T04:26:38;18.83;;;9.70;;
75009;SDS011;63564;46.840;18.336;2022-10-16T04:29:39;18.73;;;10.13;;
75009;SDS011;63564;46.840;18.336;2022-10-16T04:32:39;17.40;;;10.00;;
75009;SDS011;63564;46.840;18.336;2022-10-16T04:35:40;16.75;;;9.70;;
75009;SDS011;63564;46.840;18.336;2022-10-16T04:38:40;17.63;;;10.07;;
75009;SDS011;63564;46.840;18.336;2022-10-16T04:41:41;17.17;;;9.03;;
75009;SDS011;63564;46.840;18.336;2022-10-16T04:44:41;16.57;;;9.33;;
75009;SDS011;63564;46.840;18.336;2022-10-16T04:47:41;17.85;;;9.93;;
75009;SDS011;63564;46.840;18.336;2022-10-16T04:50:42;17.37;;;9.70;;
75009;SDS011;63564;46.840;18.336;2022-10-16T04:53:42;16.53;;;9.00;;
75009;SDS011;63564;46.840;18.336;2022-10-16T04:56:42;17.53;;;9.30;;
75009;SDS011;63564;46.840;18.336;2022-10-16T04:59:46;17.00;;;9.50;;
75009;SDS011;63564;46.840;18.336;2022-10-16T05:02:47;16.23;;;8.33;;
75009;SDS011;63564;46.840;18.336;2022-10-16T05:05:49;17.50;;;9.02;;
75009;SDS011;63564;46.840;18.336;2022-10-16T05:08:49;15.83;;;8.90;;
75009;SDS011;63564;46.840;18.336;2022-10-16T05:11:50;15.97;;;9.47;;
75009;SDS011;63564;46.840;18.336;2022-10-16T05:14:50;16.67;;;8.90;;
75009;SDS011;63564;46.840;18.336;2022-10-16T05:17:54;19.37;;;9.30;;
75009;SDS011;63564;46.840;18.336;2022-10-16T05:20:54;15.25;;;8.80;;
75009;SDS011;63564;46.840;18.336;2022-10-16T05:23:55;21.33;;;10.20;;
75009;SDS011;63564;46.840;18.336;2022-10-16T05:26:55;17.23;;;9.63;;
75009;SDS011;63564;46.840;18.336;2022-10-16T05:29:56;19.55;;;9.98;;
75009;SDS011;63564;46.840;18.336;2022-10-16T05:32:56;18.97;;;10.77;;
75009;SDS011;63564;46.840;18.336;2022-10-16T05:35:57;18.20;;;9.23;;
75009;SDS011;63564;46.840;18.336;2022-10-16T05:39:01;17.48;;;9.75;;
75009;SDS011;63564;46.840;18.336;2022-10-16T05:42:02;17.40;;;9.60;;
75009;SDS011;63564;46.840;18.336;2022-10-16T05:45:03;19.07;;;9.47;;
75009;SDS011;63564;46.840;18.336;2022-10-16T05:48:05;20.70;;;9.70;;
75009;SDS011;63564;46.840;18.336;2022-10-16T05:51:06;20.10;;;9.63;;
75009;SDS011;63564;46.840;18.336;2022-10-16T05:54:09;17.00;;;9.30;;
75009;SDS011;63564;46.840;18.336;2022-10-16T05:57:09;18.52;;;10.40;;
75009;SDS011;63564;46.840;18.336;2022-10-16T06:00:10;21.30;;;11.82;;
75009;SDS011;63564;46.840;18.336;2022-10-16T06:03:10;19.13;;;11.03;;
75009;SDS011;63564;46.840;18.336;2022-10-16T06:06:12;20.13;;;9.67;;
75009;SDS011;63564;46.840;18.336;2022-10-16T06:09:14;19.35;;;9.63;;
75009;SDS011;63564;46.840;18.336;2022-10-16T06:12:14;19.83;;;10.07;;
75009;SDS011;63564;46.840;18.336;2022-10-16T06:15:15;17.52;;;10.07;;
75009;SDS011;63564;46.840;18.336;2022-10-16T06:18:15;18.10;;;10.30;;
75009;SDS011;63564;46.840;18.336;2022-10-16T06:21:17;18.93;;;10.10;;
75009;SDS011;63564;46.840;18.336;2022-10-16T06:24:18;15.45;;;8.80;;
75009;SDS011;63564;46.840;18.336;2022-10-16T06:27:19;20.10;;;11.13;;
75009;SDS011;63564;46.840;18.336;2022-10-16T06:30:19;17.30;;;9.60;;
75009;SDS011;63564;46.840;18.336;2022-10-16T06:33:20;16.03;;;9.00;;
75009;SDS011;63564;46.840;18.336;2022-10-16T06:36:20;15.93;;;8.53;;
75009;SDS011;63564;46.840;18.336;2022-10-16T06:39:20;17.58;;;8.90;;
75009;SDS011;63564;46.840;18.336;2022-10-16T06:42:21;17.70;;;8.83;;
75009;SDS011;63564;46.840;18.336;2022-10-16T06:45:21;16.20;;;8.90;;
75009;SDS011;63564;46.840;18.336;2022-10-16T06:48:22;16.40;;;8.90;;
75009;SDS011;63564;46.840;18.336;2022-10-16T06:51:24;15.18;;;9.02;;
75009;SDS011;63564;46.840;18.336;2022-10-16T06:54:25;14.13;;;8.70;;
75009;SDS011;63564;46.840;18.336;2022-10-16T06:57:25;16.45;;;8.77;;
75009;SDS011;63564;46.840;18.336;2022-10-16T07:00:26;16.10;;;8.77;;
75009;SDS011;63564;46.840;18.336;2022-10-16T07:03:26;14.68;;;8.45;;
75009;SDS011;63564;46.840;18.336;2022-10-16T07:06:29;14.25;;;8.20;;
75009;SDS011;63564;46.840;18.336;2022-10-16T07:09:31;13.87;;;8.23;;
75009;SDS011;63564;46.840;18.336;2022-10-16T07:12:32;14.48;;;8.18;;
75009;SDS011;63564;46.840;18.336;2022-10-16T07:15:32;15.35;;;8.38;;
75009;SDS011;63564;46.840;18.336;2022-10-16T07:18:33;15.27;;;8.87;;
75009;SDS011;63564;46.840;18.336;2022-10-16T07:21:34;15.10;;;7.93;;
75009;SDS011;63564;46.840;18.336;2022-10-16T07:24:37;15.10;;;8.57;;
75009;SDS011;63564;46.840;18.336;2022-10-16T07:27:38;14.77;;;8.37;;
75009;SDS011;63564;46.840;18.336;2022-10-16T07:30:38;14.87;;;8.50;;
75009;SDS011;63564;46.840;18.336;2022-10-16T07:33:40;14.23;;;8.13;;
75009;SDS011;63564;46.840;18.336;2022-10-16T07:36:43;14.07;;;8.32;;
75009;SDS011;63564;46.840;18.336;2022-10-16T07:39:43;15.07;;;8.77;;
75009;SDS011;63564;46.840;18.336;2022-10-16T07:42:43;15.80;;;8.73;;
75009;SDS011;63564;46.840;18.336;2022-10-16T07:45:47;15.33;;;8.97;;
75009;SDS011;63564;46.840;18.336;2022-10-16T07:48:49;13.88;;;8.35;;
75009;SDS011;63564;46.840;18.336;2022-10-16T07:51:49;15.37;;;8.53;;
75009;SDS011;63564;46.840;18.336;2022-10-16T07:54:50;13.57;;;8.15;;
75009;SDS011;63564;46.840;18.336;2022-10-16T07:57:50;14.37;;;8.60;;
75009;SDS011;63564;46.840;18.336;2022-10-16T08:00:50;15.20;;;8.23;;
75009;SDS011;63564;46.840;18.336;2022-10-16T08:03:51;13.80;;;8.10;;
75009;SDS011;63564;46.840;18.336;2022-10-16T08:06:52;16.88;;;8.35;;
75009;SDS011;63564;46.840;18.336;2022-10-16T08:09:54;14.70;;;8.80;;
75009;SDS011;63564;46.840;18.336;2022-10-16T08:12:56;20.05;;;8.95;;
75009;SDS011;63564;46.840;18.336;2022-10-16T08:15:57;14.70;;;8.40;;
75009;SDS011;63564;46.840;18.336;2022-10-16T08:18:57;14.63;;;8.57;;
75009;SDS011;63564;46.840;18.336;2022-10-16T08:21:57;12.80;;;8.13;;
75009;SDS011;63564;46.840;18.336;2022-10-16T08:24:58;14.30;;;8.47;;
75009;SDS011;63564;46.840;18.336;2022-10-16T08:27:58;15.27;;;7.93;;
75009;SDS011;63564;46.840;18.336;2022-10-16T08:31:08;14.97;;;8.10;;
75009;SDS011;63564;46.840;18.336;2022-10-16T08:34:10;13.50;;;8.18;;
75009;SDS011;63564;46.840;18.336;2022-10-16T08:37:11;12.63;;;8.10;;
75009;SDS011;63564;46.840;18.336;2022-10-16T08:40:18;13.30;;;8.63;;
75009;SDS011;63564;46.840;18.336;2022-10-16T08:46:30;16.52;;;9.13;;
75009;SDS011;63564;46.840;18.336;2022-10-16T08:49:38;14.07;;;8.17;;
75009;SDS011;63564;46.840;18.336;2022-10-16T08:52:43;13.60;;;8.50;;
75009;SDS011;63564;46.840;18.336;2022-10-16T08:55:46;16.80;;;9.20;;
75009;SDS011;63564;46.840;18.336;2022-10-16T08:58:51;15.55;;;9.45;;
75009;SDS011;63564;46.840;18.336;2022-10-16T09:01:52;17.40;;;9.68;;
75009;SDS011;63564;46.840;18.336;2022-10-16T09:05:36;14.60;;;8.87;;
75009;SDS011;63564;46.840;18.336;2022-10-16T09:08:24;14.02;;;9.00;;
75009;SDS011;63564;46.840;18.336;2022-10-16T09:24:19;15.98;;;9.60;;
75009;SDS011;63564;46.840;18.336;2022-10-16T09:27:21;16.42;;;9.48;;
75009;SDS011;63564;46.840;18.336;2022-10-16T09:30:22;17.10;;;9.50;;
75009;SDS011;63564;46.840;18.336;2022-10-16T09:33:28;15.90;;;9.77;;
75009;SDS011;63564;46.840;18.336;2022-10-16T09:36:37;16.45;;;9.90;;
75009;SDS011;63564;46.840;18.336;2022-10-16T09:39:43;15.68;;;9.65;;
75009;SDS011;63564;46.840;18.336;2022-10-16T09:42:47;16.55;;;10.32;;
75009;SDS011;63564;46.840;18.336;2022-10-16T09:45:58;17.27;;;9.97;;
75009;SDS011;63564;46.840;18.336;2022-10-16T09:49:04;16.35;;;11.10;;
75009;SDS011;63564;46.840;18.336;2022-10-16T09:52:18;20.00;;;11.10;;
75009;SDS011;63564;46.840;18.336;2022-10-16T09:55:19;17.63;;;11.02;;
75009;SDS011;63564;46.840;18.336;2022-10-16T09:58:23;17.00;;;10.17;;
75009;SDS011;63564;46.840;18.336;2022-10-16T10:01:46;15.73;;;9.82;;
75009;SDS011;63564;46.840;18.336;2022-10-16T10:04:49;16.38;;;9.57;;
75009;SDS011;63564;46.840;18.336;2022-10-16T10:07:58;14.23;;;9.38;;
75009;SDS011;63564;46.840;18.336;2022-10-16T10:11:00;15.17;;;9.80;;
75009;SDS011;63564;46.840;18.336;2022-10-16T10:14:15;15.67;;;9.87;;
75009;SDS011;63564;46.840;18.336;2022-10-16T10:23:29;18.45;;;10.00;;
75009;SDS011;63564;46.840;18.336;2022-10-16T10:26:30;15.93;;;8.95;;
75009;SDS011;63564;46.840;18.336;2022-10-16T10:39:32;16.45;;;9.95;;
75009;SDS011;63564;46.840;18.336;2022-10-16T10:45:54;13.60;;;9.02;;
75009;SDS011;63564;46.840;18.336;2022-10-16T10:49:25;13.43;;;8.80;;
75009;SDS011;63564;46.840;18.336;2022-10-16T10:56:21;14.43;;;9.32;;
75009;SDS011;63564;46.840;18.336;2022-10-16T11:03:04;14.02;;;8.43;;
75009;SDS011;63564;46.840;18.336;2022-10-16T11:06:12;14.53;;;8.93;;
75009;SDS011;63564;46.840;18.336;2022-10-16T11:15:23;14.20;;;9.43;;
75009;SDS011;63564;46.840;18.336;2022-10-16T11:18:30;17.58;;;9.25;;
75009;SDS011;63564;46.840;18.336;2022-10-16T11:21:45;14.30;;;7.90;;
75009;SDS011;63564;46.840;18.336;2022-10-16T11:24:54;15.60;;;8.93;;
75009;SDS011;63564;46.840;18.336;2022-10-16T11:28:06;14.33;;;9.20;;
75009;SDS011;63564;46.840;18.336;2022-10-16T11:31:28;14.15;;;8.63;;
75009;SDS011;63564;46.840;18.336;2022-10-16T11:37:31;13.80;;;8.43;;
75009;SDS011;63564;46.840;18.336;2022-10-16T11:40:39;14.75;;;8.38;;
75009;SDS011;63564;46.840;18.336;2022-10-16T11:43:46;15.40;;;8.60;;
75009;SDS011;63564;46.840;18.336;2022-10-16T11:47:06;19.47;;;8.90;;
75009;SDS011;63564;46.840;18.336;2022-10-16T11:50:27;13.55;;;8.25;;
75009;SDS011;63564;46.840;18.336;2022-10-16T11:56:39;16.33;;;9.30;;
75009;SDS011;63564;46.840;18.336;2022-10-16T12:09:26;12.13;;;7.47;;
75009;SDS011;63564;46.840;18.336;2022-10-16T12:15:35;10.90;;;7.33;;
75009;SDS011;63564;46.840;18.336;2022-10-16T12:18:35;17.07;;;7.60;;
75009;SDS011;63564;46.840;18.336;2022-10-16T12:21:36;12.60;;;8.00;;
75009;SDS011;63564;46.840;18.336;2022-10-16T12:24:38;13.50;;;7.87;;
75009;SDS011;63564;46.840;18.336;2022-10-16T12:27:42;13.80;;;7.70;;
75009;SDS011;63564;46.840;18.336;2022-10-16T12:30:42;13.13;;;7.67;;
75009;SDS011;63564;46.840;18.336;2022-10-16T12:33:58;12.50;;;7.45;;
75009;SDS011;63564;46.840;18.336;2022-10-16T12:37:35;12.13;;;7.43;;
75009;SDS011;63564;46.840;18.336;2022-10-16T12:40:32;13.75;;;7.95;;
75009;SDS011;63564;46.840;18.336;2022-10-16T12:46:38;14.32;;;8.20;;
75009;SDS011;63564;46.840;18.336;2022-10-16T12:49:47;16.25;;;8.32;;
75009;SDS011;63564;46.840;18.336;2022-10-16T12:52:49;14.70;;;8.82;;
75009;SDS011;63564;46.840;18.336;2022-10-16T13:08:51;12.57;;;7.40;;
75009;SDS011;63564;46.840;18.336;2022-10-16T13:18:21;14.32;;;7.75;;
75009;SDS011;63564;46.840;18.336;2022-10-16T13:21:30;13.98;;;7.95;;
75009;SDS011;63564;46.840;18.336;2022-10-16T13:27:55;14.50;;;8.50;;
75009;SDS011;63564;46.840;18.336;2022-10-16T13:30:59;14.90;;;8.48;;
75009;SDS011;63564;46.840;18.336;2022-10-16T13:34:01;16.55;;;8.95;;
75009;SDS011;63564;46.840;18.336;2022-10-16T13:37:15;12.60;;;8.65;;
75009;SDS011;63564;46.840;18.336;2022-10-16T13:40:21;15.97;;;8.30;;
75009;SDS011;63564;46.840;18.336;2022-10-16T13:43:28;13.50;;;8.53;;
75009;SDS011;63564;46.840;18.336;2022-10-16T13:46:32;14.63;;;8.55;;
75009;SDS011;63564;46.840;18.336;2022-10-16T13:49:34;16.35;;;9.52;;
75009;SDS011;63564;46.840;18.336;2022-10-16T13:52:34;14.43;;;8.63;;
75009;SDS011;63564;46.840;18.336;2022-10-16T13:55:35;14.57;;;8.97;;
75009;SDS011;63564;46.840;18.336;2022-10-16T13:58:36;15.25;;;9.43;;
75009;SDS011;63564;46.840;18.336;2022-10-16T14:01:40;16.00;;;9.13;;
75009;SDS011;63564;46.840;18.336;2022-10-16T14:04:42;15.27;;;9.25;;
75009;SDS011;63564;46.840;18.336;2022-10-16T14:07:42;15.73;;;9.10;;
75009;SDS011;63564;46.840;18.336;2022-10-16T14:10:46;13.90;;;8.47;;
75009;SDS011;63564;46.840;18.336;2022-10-16T14:13:49;14.00;;;9.40;;
75009;SDS011;63564;46.840;18.336;2022-10-16T14:16:49;16.88;;;9.68;;
75009;SDS011;63564;46.840;18.336;2022-10-16T14:19:52;15.35;;;8.80;;
75009;SDS011;63564;46.840;18.336;2022-10-16T14:22:58;14.63;;;8.87;;
75009;SDS011;63564;46.840;18.336;2022-10-16T14:29:18;13.13;;;7.95;;
75009;SDS011;63564;46.840;18.336;2022-10-16T14:32:22;13.98;;;9.05;;
75009;SDS011;63564;46.840;18.336;2022-10-16T14:35:31;14.82;;;8.07;;
75009;SDS011;63564;46.840;18.336;2022-10-16T14:38:38;13.00;;;7.97;;
75009;SDS011;63564;46.840;18.336;2022-10-16T14:41:47;11.95;;;7.90;;
75009;SDS011;63564;46.840;18.336;2022-10-16T14:44:50;13.65;;;7.70;;
75009;SDS011;63564;46.840;18.336;2022-10-16T14:47:55;13.45;;;8.20;;
75009;SDS011;63564;46.840;18.336;2022-10-16T14:50:57;14.57;;;8.32;;
75009;SDS011;63564;46.840;18.336;2022-10-16T14:53:58;13.60;;;8.33;;
75009;SDS011;63564;46.840;18.336;2022-10-16T14:56:58;16.03;;;8.30;;
75009;SDS011;63564;46.840;18.336;2022-10-16T14:59:59;16.97;;;7.93;;
75009;SDS011;63564;46.840;18.336;2022-10-16T15:02:59;17.40;;;8.40;;
75009;SDS011;63564;46.840;18.336;2022-10-16T15:06:00;15.07;;;8.00;;
75009;SDS011;63564;46.840;18.336;2022-10-16T15:09:00;22.90;;;8.40;;
75009;SDS011;63564;46.840;18.336;2022-10-16T15:12:00;15.13;;;8.13;;
75009;SDS011;63564;46.840;18.336;2022-10-16T15:15:01;15.02;;;8.40;;
75009;SDS011;63564;46.840;18.336;2022-10-16T15:18:15;19.07;;;8.43;;
75009;SDS011;63564;46.840;18.336;2022-10-16T15:21:29;17.88;;;7.82;;
75009;SDS011;63564;46.840;18.336;2022-10-16T15:24:31;16.85;;;8.13;;
75009;SDS011;63564;46.840;18.336;2022-10-16T15:27:31;15.27;;;7.53;;
75009;SDS011;63564;46.840;18.336;2022-10-16T15:30:40;17.13;;;8.38;;
75009;SDS011;63564;46.840;18.336;2022-10-16T15:33:40;17.70;;;7.38;;
75009;SDS011;63564;46.840;18.336;2022-10-16T15:36:40;14.27;;;8.10;;
75009;SDS011;63564;46.840;18.336;2022-10-16T15:39:41;14.77;;;7.97;;
75009;SDS011;63564;46.840;18.336;2022-10-16T15:42:41;14.50;;;8.00;;
75009;SDS011;63564;46.840;18.336;2022-10-16T15:45:41;12.60;;;7.60;;
75009;SDS011;63564;46.840;18.336;2022-10-16T15:48:42;13.63;;;7.63;;
75009;SDS011;63564;46.840;18.336;2022-10-16T15:51:43;13.23;;;7.70;;
75009;SDS011;63564;46.840;18.336;2022-10-16T15:54:43;14.17;;;7.67;;
75009;SDS011;63564;46.840;18.336;2022-10-16T15:57:44;14.17;;;8.53;;
75009;SDS011;63564;46.840;18.336;2022-10-16T16:00:45;15.77;;;8.52;;
75009;SDS011;63564;46.840;18.336;2022-10-16T16:03:45;13.93;;;8.20;;
75009;SDS011;63564;46.840;18.336;2022-10-16T16:06:46;14.23;;;8.40;;
75009;SDS011;63564;46.840;18.336;2022-10-16T16:09:46;12.53;;;8.00;;
75009;SDS011;63564;46.840;18.336;2022-10-16T16:12:47;14.38;;;8.63;;
75009;SDS011;63564;46.840;18.336;2022-10-16T16:15:51;15.13;;;8.40;;
75009;SDS011;63564;46.840;18.336;2022-10-16T16:18:52;14.93;;;9.50;;
75009;SDS011;63564;46.840;18.336;2022-10-16T16:21:53;31.92;;;15.55;;
75009;SDS011;63564;46.840;18.336;2022-10-16T16:24:53;48.47;;;20.47;;
75009;SDS011;63564;46.840;18.336;2022-10-16T16:27:54;33.35;;;15.50;;
75009;SDS011;63564;46.840;18.336;2022-10-16T16:30:54;28.87;;;13.97;;
75009;SDS011;63564;46.840;18.336;2022-10-16T16:33:54;24.60;;;11.73;;
75009;SDS011;63564;46.840;18.336;2022-10-16T16:36:56;27.10;;;10.88;;
75009;SDS011;63564;46.840;18.336;2022-10-16T16:39:57;25.17;;;12.63;;
75009;SDS011;63564;46.840;18.336;2022-10-16T16:43:00;24.55;;;13.07;;
75009;SDS011;63564;46.840;18.336;2022-10-16T16:46:01;24.80;;;11.63;;
75009;SDS011;63564;46.840;18.336;2022-10-16T16:49:01;19.80;;;10.10;;
75009;SDS011;63564;46.840;18.336;2022-10-16T16:52:03;20.67;;;12.23;;
75009;SDS011;63564;46.840;18.336;2022-10-16T16:55:03;17.73;;;11.00;;
75009;SDS011;63564;46.840;18.336;2022-10-16T16:58:04;44.83;;;22.37;;
75009;SDS011;63564;46.840;18.336;2022-10-16T17:01:05;35.78;;;17.27;;
75009;SDS011;63564;46.840;18.336;2022-10-16T17:04:06;23.77;;;13.43;;
75009;SDS011;63564;46.840;18.336;2022-10-16T17:07:07;19.23;;;11.93;;
75009;SDS011;63564;46.840;18.336;2022-10-16T17:10:07;19.85;;;11.50;;
75009;SDS011;63564;46.840;18.336;2022-10-16T17:13:08;18.57;;;10.50;;
75009;SDS011;63564;46.840;18.336;2022-10-16T17:16:09;20.43;;;13.93;;
75009;SDS011;63564;46.840;18.336;2022-10-16T17:19:11;20.50;;;12.93;;
75009;SDS011;63564;46.840;18.336;2022-10-16T17:22:13;37.05;;;19.02;;
75009;SDS011;63564;46.840;18.336;2022-10-16T17:25:14;28.13;;;14.10;;
75009;SDS011;63564;46.840;18.336;2022-10-16T17:28:14;21.13;;;11.83;;
75009;SDS011;63564;46.840;18.336;2022-10-16T17:31:15;19.63;;;10.90;;
75009;SDS011;63564;46.840;18.336;2022-10-16T17:34:17;19.10;;;11.88;;
75009;SDS011;63564;46.840;18.336;2022-10-16T17:37:18;17.50;;;11.33;;
75009;SDS011;63564;46.840;18.336;2022-10-16T17:40:18;17.67;;;10.63;;
75009;SDS011;63564;46.840;18.336;2022-10-16T17:43:19;20.17;;;12.45;;
75009;SDS011;63564;46.840;18.336;2022-10-16T17:46:20;28.90;;;16.10;;
75009;SDS011;63564;46.840;18.336;2022-10-16T17:49:22;46.17;;;23.63;;
75009;SDS011;63564;46.840;18.336;2022-10-16T17:52:23;41.70;;;22.95;;
75009;SDS011;63564;46.840;18.336;2022-10-16T17:55:23;30.47;;;15.97;;
75009;SDS011;63564;46.840;18.336;2022-10-16T17:58:24;21.13;;;11.27;;
75009;SDS011;63564;46.840;18.336;2022-10-16T18:01:25;22.33;;;10.67;;
75009;SDS011;63564;46.840;18.336;2022-10-16T18:04:31;16.85;;;8.77;;
75009;SDS011;63564;46.840;18.336;2022-10-16T18:07:31;14.57;;;8.10;;
75009;SDS011;63564;46.840;18.336;2022-10-16T18:10:31;13.20;;;8.00;;
75009;SDS011;63564;46.840;18.336;2022-10-16T18:13:32;14.60;;;7.70;;
75009;SDS011;63564;46.840;18.336;2022-10-16T18:16:32;13.18;;;7.70;;
75009;SDS011;63564;46.840;18.336;2022-10-16T18:19:35;19.90;;;9.70;;
75009;SDS011;63564;46.840;18.336;2022-10-16T18:22:35;17.52;;;10.85;;
75009;SDS011;63564;46.840;18.336;2022-10-16T18:25:36;18.20;;;10.47;;
75009;SDS011;63564;46.840;18.336;2022-10-16T18:28:36;17.30;;;11.17;;
75009;SDS011;63564;46.840;18.336;2022-10-16T18:31:37;29.40;;;17.20;;
75009;SDS011;63564;46.840;18.336;2022-10-16T18:34:38;26.73;;;16.17;;
75009;SDS011;63564;46.840;18.336;2022-10-16T18:37:38;26.73;;;15.90;;
75009;SDS011;63564;46.840;18.336;2022-10-16T18:40:38;24.47;;;13.83;;
75009;SDS011;63564;46.840;18.336;2022-10-16T18:43:39;26.27;;;14.93;;
75009;SDS011;63564;46.840;18.336;2022-10-16T18:46:39;23.20;;;12.77;;
75009;SDS011;63564;46.840;18.336;2022-10-16T18:49:40;20.73;;;11.60;;
75009;SDS011;63564;46.840;18.336;2022-10-16T18:52:46;22.67;;;11.87;;
75009;SDS011;63564;46.840;18.336;2022-10-16T18:55:53;15.82;;;9.52;;
75009;SDS011;63564;46.840;18.336;2022-10-16T18:58:53;17.48;;;9.73;;
75009;SDS011;63564;46.840;18.336;2022-10-16T19:01:53;16.20;;;9.27;;
75009;SDS011;63564;46.840;18.336;2022-10-16T19:04:54;16.37;;;9.70;;
75009;SDS011;63564;46.840;18.336;2022-10-16T19:07:54;16.63;;;9.80;;
75009;SDS011;63564;46.840;18.336;2022-10-16T19:10:54;15.80;;;9.57;;
75009;SDS011;63564;46.840;18.336;2022-10-16T19:13:55;16.00;;;9.13;;
75009;SDS011;63564;46.840;18.336;2022-10-16T19:16:56;13.95;;;8.38;;
75009;SDS011;63564;46.840;18.336;2022-10-16T19:19:56;12.63;;;6.80;;
75009;SDS011;63564;46.840;18.336;2022-10-16T19:22:57;14.23;;;7.50;;
75009;SDS011;63564;46.840;18.336;2022-10-16T19:26:05;13.57;;;6.67;;
75009;SDS011;63564;46.840;18.336;2022-10-16T19:29:07;11.37;;;5.87;;
75009;SDS011;63564;46.840;18.336;2022-10-16T19:32:08;9.82;;;5.95;;
75009;SDS011;63564;46.840;18.336;2022-10-16T19:35:09;11.93;;;6.00;;
75009;SDS011;63564;46.840;18.336;2022-10-16T19:38:09;10.85;;;6.25;;
75009;SDS011;63564;46.840;18.336;2022-10-16T19:41:10;12.73;;;6.00;;
75009;SDS011;63564;46.840;18.336;2022-10-16T19:44:15;9.77;;;5.57;;
75009;SDS011;63564;46.840;18.336;2022-10-16T19:47:16;12.02;;;5.55;;